createdAt,value
2018-06-15T00:01:23.259Z,25.37
2018-06-15T00:03:56.307Z,23.30
2018-06-15T00:06:29.438Z,23.60
2018-06-15T00:09:02.597Z,23.67
2018-06-15T00:11:35.672Z,25.03
2018-06-15T00:14:08.725Z,27.83
2018-06-15T00:16:40.534Z,30.40
2018-06-15T00:19:13.826Z,32.07
2018-06-15T00:21:46.976Z,32.50
2018-06-15T00:24:20.016Z,34.73
2018-06-15T00:26:53.132Z,35.93
2018-06-15T00:29:26.550Z,37.17
2018-06-15T00:31:59.658Z,39.13
2018-06-15T00:34:32.756Z,35.10
2018-06-15T00:37:05.879Z,38.27
2018-06-15T00:39:38.961Z,39.30
2018-06-15T00:42:12.069Z,40.23
2018-06-15T00:44:45.311Z,39.77
2018-06-15T00:47:18.513Z,38.17
2018-06-15T00:49:52.540Z,39.70
2018-06-15T00:52:25.734Z,38.13
2018-06-15T00:54:58.902Z,37.97
2018-06-15T00:57:46.685Z,37.07
2018-06-15T01:00:20.325Z,39.60
2018-06-15T01:02:53.373Z,38.87
2018-06-15T01:05:26.520Z,36.97
2018-06-15T01:07:59.661Z,35.43
2018-06-15T01:10:32.744Z,37.50
2018-06-15T01:13:05.837Z,38.47
2018-06-15T01:15:38.963Z,39.73
2018-06-15T01:18:12.040Z,37.97
2018-06-15T01:20:46.714Z,36.90
2018-06-15T01:23:19.889Z,37.57
2018-06-15T01:25:52.885Z,38.03
2018-06-15T01:28:26.000Z,37.03
2018-06-15T01:30:59.140Z,35.83
2018-06-15T01:33:32.223Z,37.90
2018-06-15T01:36:05.324Z,37.07
2018-06-15T01:38:38.361Z,39.73
2018-06-15T01:41:11.692Z,40.37
2018-06-15T01:43:44.780Z,39.30
2018-06-15T01:46:17.848Z,42.13
2018-06-15T01:48:50.975Z,42.87
2018-06-15T01:51:24.077Z,45.80
2018-06-15T01:53:57.211Z,42.60
2018-06-15T01:56:28.969Z,43.37
2018-06-15T01:59:02.041Z,42.37
2018-06-15T02:01:35.112Z,43.47
2018-06-15T02:04:08.139Z,42.00
2018-06-15T02:06:42.040Z,39.90
2018-06-15T02:09:13.719Z,37.80
2018-06-15T02:11:46.693Z,37.33
2018-06-15T02:14:20.011Z,36.50
2018-06-15T02:16:53.093Z,37.03
2018-06-15T02:19:26.147Z,35.67
2018-06-15T02:21:59.378Z,33.57
2018-06-15T02:24:32.441Z,35.53
2018-06-15T02:27:04.021Z,32.10
2018-06-15T02:29:37.928Z,31.80
2018-06-15T02:32:11.096Z,30.43
2018-06-15T02:34:44.172Z,28.50
2018-06-15T02:37:17.275Z,26.27
2018-06-15T02:39:50.477Z,26.27
2018-06-15T02:42:23.551Z,25.37
2018-06-15T02:44:56.649Z,25.23
2018-06-15T02:47:29.740Z,25.30
2018-06-15T02:50:02.818Z,24.37
2018-06-15T02:52:34.480Z,24.40
2018-06-15T02:55:08.728Z,25.90
2018-06-15T02:57:41.906Z,25.80
2018-06-15T03:00:15.002Z,24.60
2018-06-15T03:02:48.080Z,26.23
2018-06-15T03:05:21.181Z,27.43
2018-06-15T03:07:54.471Z,27.27
2018-06-15T03:10:27.615Z,26.40
2018-06-15T03:13:00.765Z,28.00
2018-06-15T03:15:33.840Z,26.40
2018-06-15T03:18:07.325Z,28.30
2018-06-15T03:20:40.303Z,24.63
2018-06-15T03:23:11.950Z,23.63
2018-06-15T03:25:45.074Z,23.47
2018-06-15T03:28:18.110Z,23.73
2018-06-15T03:30:51.232Z,23.80
2018-06-15T03:33:24.331Z,22.83
2018-06-15T03:35:57.463Z,23.40
2018-06-15T03:38:30.548Z,23.60
2018-06-15T03:41:03.661Z,22.87
2018-06-15T03:43:36.829Z,23.50
2018-06-15T03:46:11.109Z,22.53
2018-06-15T03:48:44.212Z,22.80
2018-06-15T03:51:17.350Z,24.03
2018-06-15T03:53:50.484Z,23.00
2018-06-15T03:56:23.609Z,25.30
2018-06-15T03:58:56.696Z,27.20
2018-06-15T04:01:29.997Z,26.47
2018-06-15T04:04:03.117Z,26.73
2018-06-15T04:06:36.327Z,27.27
2018-06-15T04:09:12.347Z,25.70
2018-06-15T04:11:45.457Z,23.97
2018-06-15T04:14:18.651Z,20.90
2018-06-15T04:16:51.856Z,21.30
2018-06-15T04:19:25.026Z,19.73
2018-06-15T04:21:58.044Z,18.87
2018-06-15T04:24:31.122Z,18.43
2018-06-15T04:27:04.236Z,16.40
2018-06-15T04:29:37.420Z,15.93
2018-06-15T04:32:10.832Z,16.57
2018-06-15T04:34:43.958Z,17.27
2018-06-15T04:37:17.035Z,17.03
2018-06-15T04:39:50.117Z,15.67
2018-06-15T04:42:23.158Z,15.83
2018-06-15T04:45:00.767Z,14.80
2018-06-15T04:47:33.840Z,14.97
2018-06-15T04:50:07.006Z,13.77
2018-06-15T04:52:40.123Z,13.70
2018-06-15T04:55:13.301Z,15.10
2018-06-15T04:57:46.392Z,13.53
2018-06-15T05:00:19.749Z,14.10
2018-06-15T05:02:52.836Z,12.77
2018-06-15T05:05:25.907Z,14.87
2018-06-15T05:07:59.352Z,14.47
2018-06-15T05:10:32.393Z,14.63
2018-06-15T05:13:05.653Z,14.10
2018-06-15T05:15:38.669Z,13.63
2018-06-15T05:18:11.796Z,14.20
2018-06-15T05:20:44.956Z,13.00
2018-06-15T05:23:18.060Z,12.97
2018-06-15T05:25:51.239Z,12.40
2018-06-15T05:28:24.369Z,12.97
2018-06-15T05:30:57.493Z,12.13
2018-06-15T05:33:30.579Z,12.17
2018-06-15T05:36:03.632Z,11.57
2018-06-15T05:38:35.232Z,11.20
2018-06-15T05:41:08.362Z,12.30
2018-06-15T05:43:41.520Z,11.97
2018-06-15T05:46:14.640Z,12.10
2018-06-15T05:48:47.737Z,11.03
2018-06-15T05:51:21.032Z,10.57
2018-06-15T05:53:54.141Z,11.10
2018-06-15T05:56:25.827Z,11.20
2018-06-15T05:58:58.851Z,12.17
2018-06-15T06:01:31.962Z,11.67
2018-06-15T06:04:05.189Z,11.63
2018-06-15T06:06:38.408Z,11.60
2018-06-15T06:09:12.649Z,12.90
2018-06-15T06:11:45.765Z,10.90
2018-06-15T06:14:18.861Z,11.73
2018-06-15T06:16:51.912Z,11.20
2018-06-15T06:19:24.952Z,12.10
2018-06-15T06:21:58.329Z,11.77
2018-06-15T06:24:31.529Z,12.60
2018-06-15T06:27:04.513Z,11.70
2018-06-15T06:29:38.348Z,11.37
2018-06-15T06:32:11.403Z,12.00
2018-06-15T06:34:44.524Z,11.90
2018-06-15T06:37:17.608Z,11.60
2018-06-15T06:39:50.708Z,11.93
2018-06-15T06:42:24.095Z,12.17
2018-06-15T06:44:57.427Z,11.90
2018-06-15T06:47:30.536Z,12.97
2018-06-15T06:50:03.500Z,10.77
2018-06-15T06:52:36.597Z,11.50
2018-06-15T06:55:09.702Z,13.10
2018-06-15T06:57:41.356Z,12.30
2018-06-15T07:00:14.452Z,12.47
2018-06-15T07:02:46.862Z,11.77
2018-06-15T07:05:19.949Z,11.00
2018-06-15T07:07:52.972Z,12.30
2018-06-15T07:10:26.130Z,12.80
2018-06-15T07:12:59.249Z,12.40
2018-06-15T07:15:32.379Z,12.93
2018-06-15T07:18:05.436Z,12.43
2018-06-15T07:20:38.504Z,12.80
2018-06-15T07:23:11.572Z,11.68
2018-06-15T07:25:44.777Z,12.40
2018-06-15T07:28:17.891Z,13.18
2018-06-15T07:30:51.127Z,13.07
2018-06-15T07:33:24.197Z,12.60
2018-06-15T07:35:57.282Z,12.60
2018-06-15T07:38:30.541Z,13.53
2018-06-15T07:41:03.674Z,13.77
2018-06-15T07:43:36.768Z,13.40
2018-06-15T07:46:10.322Z,14.57
2018-06-15T07:48:43.357Z,12.73
2018-06-15T07:51:16.465Z,13.33
2018-06-15T07:53:49.517Z,12.77
2018-06-15T07:56:22.644Z,13.00
2018-06-15T07:58:55.748Z,11.50
2018-06-15T08:01:28.800Z,12.40
2018-06-15T08:04:09.752Z,13.00
2018-06-15T08:06:43.287Z,11.90
2018-06-15T08:09:16.352Z,12.30
2018-06-15T08:11:49.452Z,12.37
2018-06-15T08:14:22.348Z,11.63
2018-06-15T08:16:55.407Z,12.00
2018-06-15T08:19:28.508Z,13.07
2018-06-15T08:22:00.181Z,12.77
2018-06-15T08:24:33.269Z,12.77
2018-06-15T08:27:06.376Z,12.70
2018-06-15T08:29:39.508Z,13.23
2018-06-15T08:32:12.629Z,14.00
2018-06-15T08:34:45.748Z,13.80
2018-06-15T08:37:18.791Z,12.90
2018-06-15T08:39:51.977Z,13.97
2018-06-15T08:42:25.114Z,14.63
2018-06-15T08:44:58.281Z,14.60
2018-06-15T08:47:31.599Z,13.57
2018-06-15T08:50:04.908Z,15.00
2018-06-15T08:52:38.144Z,13.00
2018-06-15T08:55:11.309Z,11.83
2018-06-15T08:57:44.392Z,12.40
2018-06-15T09:00:17.516Z,11.97
2018-06-15T09:02:50.612Z,12.40
2018-06-15T09:05:23.688Z,12.37
2018-06-15T09:07:56.857Z,12.73
2018-06-15T09:10:30.832Z,12.73
2018-06-15T09:13:03.952Z,11.33
2018-06-15T09:15:37.016Z,11.57
2018-06-15T09:18:10.108Z,11.17
2018-06-15T09:20:43.256Z,10.87
2018-06-15T09:23:16.561Z,12.07
2018-06-15T09:25:49.577Z,12.30
2018-06-15T09:28:22.694Z,13.80
2018-06-15T09:30:55.697Z,12.70
2018-06-15T09:33:28.850Z,11.90
2018-06-15T09:36:01.957Z,13.50
2018-06-15T09:38:35.139Z,12.30
2018-06-15T09:41:08.138Z,12.83
2018-06-15T09:43:41.202Z,12.90
2018-06-15T09:46:14.359Z,12.60
2018-06-15T09:48:47.498Z,12.33
2018-06-15T09:51:20.532Z,13.60
2018-06-15T09:53:53.528Z,13.10
2018-06-15T09:56:26.686Z,13.30
2018-06-15T09:58:59.809Z,12.67
2018-06-15T10:01:32.809Z,12.93
2018-06-15T10:04:05.928Z,12.53
2018-06-15T10:06:39.308Z,13.30
2018-06-15T10:09:12.400Z,13.33
2018-06-15T10:11:45.533Z,14.17
2018-06-15T10:14:18.640Z,13.83
2018-06-15T10:16:51.749Z,14.03
2018-06-15T10:19:24.833Z,14.77
2018-06-15T10:21:57.924Z,14.40
2018-06-15T10:24:31.417Z,14.67
2018-06-15T10:27:04.458Z,13.67
2018-06-15T10:29:38.304Z,14.83
2018-06-15T10:32:12.567Z,15.70
2018-06-15T10:34:45.624Z,13.37
2018-06-15T10:37:18.682Z,14.87
2018-06-15T10:39:51.688Z,15.87
2018-06-15T10:42:24.734Z,14.90
2018-06-15T10:44:58.487Z,15.60
2018-06-15T10:47:31.572Z,16.30
2018-06-15T10:50:05.693Z,16.40
2018-06-15T10:52:38.756Z,17.90
2018-06-15T10:55:11.837Z,17.90
2018-06-15T10:57:44.950Z,16.70
2018-06-15T11:00:18.008Z,16.27
2018-06-15T11:02:49.776Z,16.17
2018-06-15T11:05:22.796Z,16.70
2018-06-15T11:07:56.035Z,16.70
2018-06-15T11:10:29.098Z,16.87
2018-06-15T11:13:02.161Z,17.10
2018-06-15T11:15:35.343Z,17.63
2018-06-15T11:18:08.564Z,18.60
2018-06-15T11:20:41.984Z,18.47
2018-06-15T11:23:15.014Z,20.97
2018-06-15T11:25:48.133Z,19.97
2018-06-15T11:28:21.288Z,19.40
2018-06-15T11:30:54.390Z,17.67
2018-06-15T11:33:27.878Z,17.77
2018-06-15T11:36:01.028Z,17.83
2018-06-15T11:38:34.067Z,18.57
2018-06-15T11:41:07.226Z,17.80
2018-06-15T11:43:40.356Z,18.27
2018-06-15T11:46:14.180Z,19.47
2018-06-15T11:48:47.439Z,19.80
2018-06-15T11:51:20.692Z,17.90
2018-06-15T11:53:53.814Z,18.90
2018-06-15T11:56:28.502Z,18.93
2018-06-15T11:59:01.625Z,16.83
2018-06-15T12:01:34.793Z,18.00
2018-06-15T12:04:07.860Z,18.70
2018-06-15T12:06:40.936Z,18.23
2018-06-15T12:09:14.107Z,17.43
2018-06-15T12:11:47.104Z,19.60
2018-06-15T12:14:20.130Z,19.47
2018-06-15T12:16:53.181Z,20.00
2018-06-15T12:19:26.324Z,18.70
2018-06-15T12:21:59.459Z,19.80
2018-06-15T12:24:32.644Z,18.40
2018-06-15T12:27:05.866Z,17.30
2018-06-15T12:29:38.908Z,17.67
2018-06-15T12:32:11.960Z,16.80
2018-06-15T12:34:45.050Z,17.33
2018-06-15T12:37:18.136Z,17.13
2018-06-15T12:39:51.496Z,16.70
2018-06-15T12:42:24.508Z,15.70
2018-06-15T12:44:57.505Z,14.73
2018-06-15T12:47:30.810Z,16.07
2018-06-15T12:50:03.914Z,17.30
2018-06-15T12:52:36.984Z,16.43
2018-06-15T12:55:10.060Z,15.50
2018-06-15T12:57:43.180Z,17.20
2018-06-15T13:00:14.830Z,16.23
2018-06-15T13:02:47.925Z,16.00
2018-06-15T13:05:21.235Z,16.50
2018-06-15T13:07:54.274Z,15.77
2018-06-15T13:10:27.363Z,15.90
2018-06-15T13:13:01.481Z,15.83
2018-06-15T13:15:34.504Z,17.30
2018-06-15T13:18:07.947Z,17.30
2018-06-15T13:20:41.249Z,17.40
2018-06-15T13:23:14.352Z,17.03
2018-06-15T13:25:48.383Z,16.50
2018-06-15T13:28:21.451Z,16.67
2018-06-15T13:30:54.441Z,15.43
2018-06-15T13:33:27.568Z,15.10
2018-06-15T13:36:00.650Z,15.90
2018-06-15T13:38:33.731Z,14.57
2018-06-15T13:41:06.804Z,14.73
2018-06-15T13:43:40.036Z,13.93
2018-06-15T13:46:13.147Z,14.57
2018-06-15T13:48:46.240Z,14.03
2018-06-15T13:51:19.376Z,14.30
2018-06-15T13:53:52.471Z,13.70
2018-06-15T13:56:25.524Z,13.53
2018-06-15T13:58:59.696Z,13.90
2018-06-15T14:01:32.836Z,13.77
2018-06-15T14:04:05.919Z,12.50
2018-06-15T14:06:38.948Z,13.70
2018-06-15T14:09:12.717Z,13.73
2018-06-15T14:11:45.761Z,13.17
2018-06-15T14:14:18.797Z,13.70
2018-06-15T14:16:51.903Z,12.83
2018-06-15T14:19:25.023Z,12.00
2018-06-15T14:21:58.263Z,12.87
2018-06-15T14:24:31.372Z,12.30
2018-06-15T14:27:04.552Z,12.07
2018-06-15T14:29:37.625Z,14.10
2018-06-15T14:32:10.713Z,14.23
2018-06-15T14:34:43.956Z,13.40
2018-06-15T14:37:17.125Z,14.30
2018-06-15T14:39:50.198Z,15.87
2018-06-15T14:42:23.225Z,15.20
2018-06-15T14:44:57.169Z,15.40
2018-06-15T14:47:30.274Z,15.03
2018-06-15T14:50:03.391Z,15.63
2018-06-15T14:52:35.301Z,15.97
2018-06-15T14:55:08.412Z,15.03
2018-06-15T14:57:41.572Z,16.47
2018-06-15T15:00:14.803Z,18.53
2018-06-15T15:02:47.847Z,17.20
2018-06-15T15:05:20.810Z,17.93
2018-06-15T15:07:53.945Z,16.50
2018-06-15T15:10:27.088Z,17.07
2018-06-15T15:13:00.116Z,15.57
2018-06-15T15:15:33.171Z,16.10
2018-06-15T15:18:06.633Z,14.60
2018-06-15T15:20:39.684Z,14.60
2018-06-15T15:23:12.778Z,16.27
2018-06-15T15:25:45.874Z,14.43
2018-06-15T15:28:19.005Z,14.70
2018-06-15T15:30:52.141Z,13.87
2018-06-15T15:33:25.230Z,13.63
2018-06-15T15:35:58.693Z,13.80
2018-06-15T15:38:31.833Z,14.03
2018-06-15T15:41:04.904Z,13.40
2018-06-15T15:43:38.030Z,13.40
2018-06-15T15:46:11.104Z,13.90
2018-06-15T15:48:44.229Z,13.27
2018-06-15T15:51:17.323Z,14.00
2018-06-15T15:53:50.357Z,13.27
2018-06-15T15:56:23.421Z,13.67
2018-06-15T15:58:56.528Z,13.17
2018-06-15T16:01:28.138Z,12.97
2018-06-15T16:04:01.240Z,12.60
2018-06-15T16:06:34.256Z,13.80
2018-06-15T16:09:08.869Z,12.33
2018-06-15T16:11:42.007Z,13.37
2018-06-15T16:14:15.102Z,13.27
2018-06-15T16:16:48.196Z,12.60
2018-06-15T16:19:20.827Z,13.87
2018-06-15T16:44:30.000Z,11.97
2018-06-15T16:47:03.124Z,10.43
2018-06-15T16:49:36.128Z,10.90
2018-06-15T16:52:09.151Z,10.87
2018-06-15T16:54:42.223Z,10.90
2018-06-15T16:57:15.243Z,10.13
2018-06-15T16:59:48.410Z,10.73
2018-06-15T17:02:21.780Z,10.40
2018-06-15T17:04:54.961Z,11.03
2018-06-15T17:07:27.957Z,12.10
2018-06-15T17:10:01.062Z,10.30
2018-06-15T17:12:34.163Z,11.13
2018-06-15T17:15:07.376Z,11.37
2018-06-15T17:17:40.558Z,11.03
2018-06-15T17:20:13.651Z,10.30
2018-06-15T17:22:46.737Z,11.50
2018-06-15T17:25:19.848Z,12.20
2018-06-15T17:27:52.937Z,11.47
2018-06-15T17:30:26.078Z,10.77
2018-06-15T17:32:59.046Z,11.00
2018-06-15T17:35:32.088Z,10.97
2018-06-15T17:38:05.207Z,11.37
2018-06-15T17:40:38.246Z,10.60
2018-06-15T17:43:11.447Z,9.70
2018-06-15T17:45:44.612Z,10.50
2018-06-15T17:48:17.751Z,11.73
2018-06-15T17:50:51.695Z,10.90
2018-06-15T17:53:24.834Z,10.30
2018-06-15T17:55:57.946Z,10.97
2018-06-15T17:58:30.962Z,10.80
2018-06-15T18:01:04.116Z,11.53
2018-06-15T18:03:37.246Z,10.07
2018-06-15T18:06:10.393Z,11.10
2018-06-15T18:08:43.496Z,9.80
2018-06-15T18:11:16.648Z,10.70
2018-06-15T18:13:49.775Z,10.60
2018-06-15T18:16:22.781Z,10.60
2018-06-15T18:18:55.808Z,10.00
2018-06-15T18:21:28.892Z,10.40
2018-06-15T18:24:02.048Z,9.23
2018-06-15T18:26:35.168Z,9.90
2018-06-15T18:29:08.244Z,10.30
2018-06-15T18:31:41.314Z,10.27
2018-06-15T18:34:14.452Z,9.97
2018-06-15T18:36:47.545Z,9.20
2018-06-15T18:39:20.709Z,8.83
2018-06-15T18:41:52.360Z,10.90
2018-06-15T18:44:25.487Z,9.40
2018-06-15T18:46:58.675Z,10.23
2018-06-15T18:49:32.583Z,9.50
2018-06-15T18:52:05.691Z,11.17
2018-06-15T18:54:39.071Z,10.20
2018-06-15T18:57:12.246Z,9.90
2018-06-15T18:59:45.292Z,9.60
2018-06-15T19:02:18.376Z,10.00
2018-06-15T19:04:51.523Z,10.13
2018-06-15T19:07:25.109Z,9.43
2018-06-15T19:09:58.201Z,10.40
2018-06-15T19:12:31.481Z,11.00
2018-06-15T19:15:04.828Z,10.00
2018-06-15T19:17:37.886Z,9.10
2018-06-15T19:20:11.005Z,10.13
2018-06-15T19:22:44.072Z,8.17
2018-06-15T19:25:17.261Z,9.20
2018-06-15T19:27:50.340Z,8.77
2018-06-15T19:30:23.368Z,8.67
2018-06-15T19:32:56.392Z,8.23
2018-06-15T19:35:29.496Z,8.07
2018-06-15T19:38:02.543Z,8.30
2018-06-15T19:40:35.703Z,7.90
2018-06-15T19:43:10.139Z,7.33
2018-06-15T19:45:43.173Z,7.00
2018-06-15T19:48:16.259Z,8.53
2018-06-15T19:50:47.827Z,7.70
2018-06-15T19:53:21.046Z,7.80
2018-06-15T19:55:54.159Z,7.20
2018-06-15T19:58:27.308Z,7.90
2018-06-15T20:01:00.385Z,8.00
2018-06-15T20:03:34.464Z,7.47
2018-06-15T20:06:07.649Z,8.37
2018-06-15T20:08:40.720Z,8.60
2018-06-15T20:11:13.888Z,8.03
2018-06-15T20:13:46.973Z,8.17
2018-06-15T20:16:20.136Z,8.60
2018-06-15T20:18:53.217Z,8.37
2018-06-15T20:21:25.127Z,8.67
2018-06-15T20:23:58.257Z,7.97
2018-06-15T20:26:31.339Z,7.03
2018-06-15T20:29:04.422Z,7.77
2018-06-15T20:31:37.477Z,6.57
2018-06-15T20:34:10.605Z,7.30
2018-06-15T20:36:43.734Z,7.20
2018-06-15T20:39:16.788Z,7.83
2018-06-15T20:41:49.870Z,7.83
2018-06-15T20:44:22.992Z,8.07
2018-06-15T20:46:56.176Z,7.40
2018-06-15T20:49:30.027Z,8.00
2018-06-15T20:52:03.378Z,7.70
2018-06-15T20:54:37.290Z,8.30
2018-06-15T20:57:10.522Z,7.57
2018-06-15T20:59:43.581Z,8.60
2018-06-15T21:02:16.717Z,8.30
2018-06-15T21:04:50.132Z,7.53
2018-06-15T21:07:23.257Z,8.20
2018-06-15T21:09:56.385Z,7.90
2018-06-15T21:12:29.539Z,8.40
2018-06-15T21:15:02.649Z,8.03
2018-06-15T21:17:35.902Z,8.30
2018-06-15T21:20:09.121Z,7.97
2018-06-15T21:22:42.273Z,7.20
2018-06-15T21:25:15.324Z,7.80
2018-06-15T21:27:48.439Z,7.57
2018-06-15T21:30:21.573Z,7.87
2018-06-15T21:32:54.657Z,7.13
2018-06-15T21:35:27.689Z,7.57
2018-06-15T21:38:00.881Z,7.43
2018-06-15T21:40:33.948Z,7.20
2018-06-15T21:43:06.943Z,7.03
2018-06-15T21:45:39.956Z,7.07
2018-06-15T21:48:11.551Z,7.33
2018-06-15T21:50:44.669Z,7.87
2018-06-15T21:53:17.748Z,7.30
2018-06-15T21:55:50.792Z,7.00
2018-06-15T21:58:24.043Z,7.10
2018-06-15T22:00:57.364Z,7.77
2018-06-15T22:03:30.384Z,7.63
2018-06-15T22:06:03.533Z,7.73
2018-06-15T22:08:36.612Z,6.90
2018-06-15T22:11:09.611Z,7.60
2018-06-15T22:13:42.755Z,7.90
2018-06-15T22:16:15.870Z,7.30
2018-06-15T22:18:48.940Z,7.20
2018-06-15T22:21:21.977Z,6.80
2018-06-15T22:23:55.013Z,7.73
2018-06-15T22:26:28.188Z,6.13
2018-06-15T22:29:01.271Z,7.10
2018-06-15T22:31:32.868Z,7.17
2018-06-15T22:34:05.927Z,6.10
2018-06-15T22:36:38.957Z,6.67
2018-06-15T22:39:15.728Z,6.77
2018-06-15T22:41:48.840Z,8.20
2018-06-15T22:44:21.856Z,8.37
2018-06-15T22:46:54.889Z,7.27
2018-06-15T22:49:28.056Z,7.40
2018-06-15T22:52:01.128Z,8.30
2018-06-15T22:54:34.461Z,7.97
2018-06-15T22:57:07.589Z,7.63
2018-06-15T22:59:40.631Z,8.20
2018-06-15T23:02:13.780Z,6.87
2018-06-15T23:04:46.897Z,7.93
2018-06-15T23:07:19.985Z,7.90
2018-06-15T23:09:53.032Z,7.60
2018-06-15T23:12:26.141Z,7.77
2018-06-15T23:14:59.344Z,8.07
2018-06-15T23:17:32.443Z,7.90
2018-06-15T23:20:05.696Z,8.50
2018-06-15T23:22:38.712Z,8.10
2018-06-15T23:25:11.774Z,6.93
2018-06-15T23:27:43.489Z,7.33
2018-06-15T23:30:16.630Z,6.83
2018-06-15T23:32:49.653Z,8.03
2018-06-15T23:35:22.672Z,8.60
2018-06-15T23:37:55.680Z,8.17
2018-06-15T23:40:28.795Z,7.83
2018-06-15T23:43:01.921Z,8.37
2018-06-15T23:45:35.017Z,7.40
2018-06-15T23:48:08.108Z,7.97
2018-06-15T23:50:41.117Z,8.43
2018-06-15T23:53:14.284Z,8.87
2018-06-15T23:55:47.390Z,9.13
2018-06-15T23:58:20.382Z,8.10
